Volcan De Teneguia — ECLA — position and weather

sailwx.info

Track history (hours):
 
Tides and Currents Weather Stations Pressure Air Temp Water Temp Dewpoint Dewpoint Depression Visibility Wind Speed Wind Dir Waves Ship Positions

Volcan De Teneguia

Last reported at 2014-Oct-29 22:23 UTC. Time now 2014-Nov-27 05:39 UTC.
Position N 33°25' W 010°02'.
Warning: this ship's position is 28 days out of date.

Length 145 m; draft 5.7 m.

Type: Cargo ship. MMSI: 225317000.

Date/timePositionNaut miles runAvg speedWind from/ knotsBaromVisibWave heightAir tempDewpointWater temp
2014-Oct-29 22:23N 33°25' W 010°02'1215.0
2014-Oct-29 21:34N 33°35' W 009°53'10815.0
2014-Oct-29 14:23N 34°56' W 008°27'1214.8
2014-Oct-29 13:33N 35°06' W 008°18'2019.2
2014-Oct-29 12:29N 35°21' W 008°02'3013.3
2014-Oct-29 10:12N 35°44' W 007°37'1014.9
2014-Oct-29 09:33N 35°51' W 007°29'  
2014-Oct-22 09:31N 34°53' W 008°32'4214.1
2014-Oct-22 06:34N 35°26' W 007°59'1914.2
2014-Oct-22 05:13N 35°40' W 007°44'914.1
2014-Oct-22 04:33N 35°47' W 007°36'1413.8
2014-Oct-22 03:33N 35°58' W 007°25'  
Track history (hours):
 
Tides and Currents Weather Stations Pressure Air Temp Water Temp Dewpoint Dewpoint Depression Visibility Wind Speed Wind Dir Waves Ship Positions

Volcan De Teneguia

Last reported at 2014-Oct-29 22:23 UTC. Time now 2014-Nov-27 05:39 UTC.
Position N 33°25' W 010°02'.
Warning: this ship's position is 28 days out of date.

Length 145 m; draft 5.7 m.

Type: Cargo ship. MMSI: 225317000.

Date/timePositionNaut miles runAvg speedWind from/ knotsBaromVisibWave heightAir tempDewpointWater temp
2014-Oct-29 22:23N 33°25' W 010°02'1215.0
2014-Oct-29 21:34N 33°35' W 009°53'10815.0
2014-Oct-29 14:23N 34°56' W 008°27'1214.8
2014-Oct-29 13:33N 35°06' W 008°18'2019.2
2014-Oct-29 12:29N 35°21' W 008°02'3013.3
2014-Oct-29 10:12N 35°44' W 007°37'1014.9
2014-Oct-29 09:33N 35°51' W 007°29'  
2014-Oct-22 09:31N 34°53' W 008°32'4214.1
2014-Oct-22 06:34N 35°26' W 007°59'1914.2
2014-Oct-22 05:13N 35°40' W 007°44'914.1
2014-Oct-22 04:33N 35°47' W 007°36'1413.8
2014-Oct-22 03:33N 35°58' W 007°25'  

Dump ship's entire track history